createdAt,value
2023-05-18T00:02:09.894Z,98676.06
2023-05-18T00:04:43.788Z,98674.59
2023-05-18T00:07:15.009Z,98682.44
2023-05-18T00:09:45.858Z,98677.00
2023-05-18T00:12:16.870Z,98670.59
2023-05-18T00:14:47.704Z,98676.69
2023-05-18T00:17:18.343Z,98668.72
2023-05-18T00:19:51.968Z,98670.44
2023-05-18T00:22:22.762Z,98664.22
2023-05-18T00:24:53.388Z,98667.16
2023-05-18T00:27:23.972Z,98663.94
2023-05-18T00:29:54.826Z,98658.38
2023-05-18T00:32:25.481Z,98653.31
2023-05-18T00:34:58.654Z,98650.94
2023-05-18T00:37:29.221Z,98652.25
2023-05-18T00:39:59.815Z,98641.63
2023-05-18T00:42:30.421Z,98655.59
2023-05-18T00:45:01.145Z,98649.50
2023-05-18T00:47:31.992Z,98649.41
2023-05-18T00:50:05.555Z,98654.59
2023-05-18T00:52:37.091Z,98658.72
2023-05-18T00:55:08.949Z,98650.63
2023-05-18T00:57:42.187Z,98653.94
2023-05-18T01:00:15.173Z,98646.63
2023-05-18T01:02:46.448Z,98637.09
2023-05-18T01:05:22.454Z,98647.41
2023-05-18T01:07:53.395Z,98647.56
2023-05-18T01:10:24.300Z,98649.28
2023-05-18T01:12:59.621Z,98647.41
2023-05-18T01:15:35.195Z,98648.09
2023-05-18T01:18:15.400Z,98653.66
2023-05-18T01:20:52.354Z,98649.03
2023-05-18T01:24:06.788Z,98650.41
2023-05-18T01:26:45.438Z,98644.84
2023-05-18T01:29:18.443Z,98644.44
2023-05-18T01:31:49.586Z,98644.00
2023-05-18T01:34:20.192Z,98645.47
2023-05-18T01:36:50.963Z,98645.38
2023-05-18T01:39:22.112Z,98650.81
2023-05-18T01:42:01.644Z,98650.41
2023-05-18T01:44:39.494Z,98650.25
2023-05-18T01:47:15.707Z,98647.16
2023-05-18T01:49:49.112Z,98639.72
2023-05-18T01:52:23.921Z,98639.19
2023-05-18T01:54:57.649Z,98640.75
2023-05-18T01:57:33.557Z,98634.34
2023-05-18T02:00:08.064Z,98642.47
2023-05-18T02:02:47.738Z,98633.72
2023-05-18T02:05:21.136Z,98638.00
2023-05-18T02:07:52.209Z,98637.22
2023-05-18T02:10:23.005Z,98631.22
2023-05-18T02:12:56.211Z,98628.44
2023-05-18T02:15:26.974Z,98628.84
2023-05-18T02:17:58.606Z,98624.72
2023-05-18T02:20:32.853Z,98623.50
2023-05-18T02:23:03.527Z,98624.53
2023-05-18T02:25:34.456Z,98623.06
2023-05-18T02:28:07.833Z,98621.22
2023-05-18T02:30:38.375Z,98618.03
2023-05-18T02:33:09.324Z,98610.78
2023-05-18T02:35:41.093Z,98610.56
2023-05-18T02:38:12.032Z,98613.75
2023-05-18T02:40:42.583Z,98602.22
2023-05-18T02:43:16.389Z,98610.81
2023-05-18T02:45:47.029Z,98606.56
2023-05-18T02:48:18.506Z,98610.81
2023-05-18T02:50:51.156Z,98607.22
2023-05-18T02:53:22.071Z,98608.38
2023-05-18T02:55:54.257Z,98601.22
2023-05-18T02:58:33.283Z,98596.38
2023-05-18T03:01:12.414Z,98601.69
2023-05-18T03:03:49.457Z,98596.72
2023-05-18T03:06:23.475Z,98598.19
2023-05-18T03:08:54.499Z,98602.97
2023-05-18T03:11:28.252Z,98601.41
2023-05-18T03:14:01.523Z,98603.78
2023-05-18T03:16:32.215Z,98603.84
2023-05-18T03:19:03.349Z,98591.19
2023-05-18T03:21:39.102Z,98591.69
2023-05-18T03:24:12.293Z,98596.47
2023-05-18T03:26:44.823Z,98596.97
2023-05-18T03:29:18.466Z,98596.91
2023-05-18T03:31:49.301Z,98599.00
2023-05-18T03:34:20.066Z,98597.28
2023-05-18T03:36:51.913Z,98597.84
2023-05-18T03:39:22.548Z,98607.22
2023-05-18T03:41:53.125Z,98599.56
2023-05-18T03:44:26.419Z,98613.34
2023-05-18T03:46:57.190Z,98606.09
2023-05-18T03:49:29.892Z,98615.22
2023-05-18T03:52:00.889Z,98610.94
2023-05-18T03:54:31.653Z,98615.00
2023-05-18T03:57:02.485Z,98621.38
2023-05-18T03:59:36.279Z,98618.88
2023-05-18T04:02:08.001Z,98609.66
2023-05-18T04:04:42.105Z,98619.13
2023-05-18T04:07:14.258Z,98616.44
2023-05-18T04:09:46.427Z,98621.66
2023-05-18T04:12:17.251Z,98619.44
2023-05-18T04:14:51.190Z,98619.59
2023-05-18T04:17:23.602Z,98613.72
2023-05-18T04:19:54.232Z,98618.94
2023-05-18T04:22:25.152Z,98628.94
2023-05-18T04:24:57.501Z,98620.97
2023-05-18T04:27:29.701Z,98635.31
2023-05-18T04:30:03.173Z,98639.28
2023-05-18T04:32:36.504Z,98642.44
2023-05-18T04:35:07.761Z,98639.69
2023-05-18T04:37:40.368Z,98649.38
2023-05-18T04:40:17.635Z,98647.31
2023-05-18T04:42:50.233Z,98651.31
2023-05-18T04:45:32.260Z,98646.34
2023-05-18T04:48:04.625Z,98655.31
2023-05-18T04:50:36.039Z,98649.78
2023-05-18T04:53:12.484Z,98663.03
2023-05-18T04:55:43.411Z,98663.72
2023-05-18T04:58:15.925Z,98651.16
2023-05-18T05:00:49.387Z,98658.66
2023-05-18T05:03:20.123Z,98662.91
2023-05-18T05:05:51.238Z,98662.50
2023-05-18T05:08:22.409Z,98660.47
2023-05-18T05:10:53.093Z,98664.16
2023-05-18T05:13:23.783Z,98668.75
2023-05-18T05:15:57.209Z,98662.28
2023-05-18T05:18:29.236Z,98657.94
2023-05-18T05:21:02.096Z,98662.34
2023-05-18T05:23:32.765Z,98666.56
2023-05-18T05:26:03.496Z,98665.28
2023-05-18T05:28:34.101Z,98672.03
2023-05-18T05:31:07.419Z,98661.22
2023-05-18T05:33:38.655Z,98667.63
2023-05-18T05:36:10.331Z,98676.28
2023-05-18T05:38:41.117Z,98676.06
2023-05-18T05:41:12.074Z,98680.81
2023-05-18T05:43:42.697Z,98683.81
2023-05-18T05:46:16.347Z,98692.50
2023-05-18T05:48:46.973Z,98690.97
2023-05-18T05:51:17.616Z,98683.63
2023-05-18T05:53:49.584Z,98679.97
2023-05-18T05:56:21.357Z,98682.84
2023-05-18T05:58:52.008Z,98687.13
2023-05-18T06:01:25.378Z,98680.44
2023-05-18T06:03:56.522Z,98686.97
2023-05-18T06:06:27.337Z,98690.72
2023-05-18T06:08:57.937Z,98691.25
2023-05-18T06:11:28.673Z,98683.44
2023-05-18T06:13:59.343Z,98690.72
2023-05-18T06:16:32.577Z,98685.63
2023-05-18T06:19:04.633Z,98687.06
2023-05-18T06:21:35.386Z,98689.41
2023-05-18T06:24:07.480Z,98687.19
2023-05-18T06:26:48.749Z,98690.22
2023-05-18T06:29:30.881Z,98688.34
2023-05-18T06:32:27.274Z,98684.03
2023-05-18T06:34:58.908Z,98686.06
2023-05-18T06:37:29.525Z,98681.28
2023-05-18T06:40:01.140Z,98686.16
2023-05-18T06:42:32.921Z,98685.22
2023-05-18T06:45:26.013Z,98688.28
2023-05-18T06:48:02.728Z,98681.53
2023-05-18T06:50:34.762Z,98692.88
2023-05-18T06:53:06.701Z,98684.59
2023-05-18T06:55:37.966Z,98691.97
2023-05-18T06:58:08.574Z,98689.28
2023-05-18T07:00:39.392Z,98687.97
2023-05-18T07:03:13.861Z,98688.84
2023-05-18T07:05:44.560Z,98686.06
2023-05-18T07:08:15.266Z,98682.09
2023-05-18T07:10:45.918Z,98680.69
2023-05-18T07:13:16.536Z,98691.59
2023-05-18T07:15:47.235Z,98686.56
2023-05-18T07:18:20.494Z,98687.78
2023-05-18T07:20:51.120Z,98682.69
2023-05-18T07:23:22.578Z,98681.13
2023-05-18T07:25:53.245Z,98677.41
2023-05-18T07:28:23.896Z,98683.22
2023-05-18T07:30:54.495Z,98687.44
2023-05-18T07:33:27.663Z,98684.41
2023-05-18T07:35:58.260Z,98678.78
2023-05-18T07:38:28.976Z,98681.00
2023-05-18T07:41:00.406Z,98682.69
2023-05-18T07:43:31.053Z,98676.09
2023-05-18T07:46:01.710Z,98679.59
2023-05-18T07:48:34.946Z,98670.69
2023-05-18T07:51:05.633Z,98673.91
2023-05-18T07:53:38.102Z,98672.09
2023-05-18T07:56:09.926Z,98661.03
2023-05-18T07:58:40.537Z,98665.97
2023-05-18T08:01:11.179Z,98659.69
2023-05-18T08:03:44.415Z,98654.94
2023-05-18T08:06:15.135Z,98664.19
2023-05-18T08:08:45.746Z,98658.59
2023-05-18T08:11:16.510Z,98655.72
2023-05-18T08:13:47.274Z,98660.91
2023-05-18T08:16:18.421Z,98654.78
2023-05-18T08:18:51.700Z,98647.50
2023-05-18T08:21:22.274Z,98649.47
2023-05-18T08:23:52.974Z,98654.72
2023-05-18T08:26:24.740Z,98653.06
2023-05-18T08:28:55.594Z,98657.31
2023-05-18T08:31:26.356Z,98640.28
2023-05-18T08:33:59.787Z,98638.25
2023-05-18T08:36:30.859Z,98647.50
2023-05-18T08:39:02.190Z,98638.44
2023-05-18T08:41:35.552Z,98640.88
2023-05-18T08:44:14.616Z,98637.38
2023-05-18T08:46:51.022Z,98637.47
2023-05-18T08:49:25.292Z,98628.78
2023-05-18T08:52:00.210Z,98623.88
2023-05-18T08:54:33.196Z,98634.66
2023-05-18T08:57:03.911Z,98626.00
2023-05-18T08:59:39.970Z,98631.50
2023-05-18T09:02:11.006Z,98636.97
2023-05-18T09:04:45.355Z,98621.84
2023-05-18T09:07:16.734Z,98622.91
2023-05-18T09:09:49.470Z,98628.63
2023-05-18T09:12:24.425Z,98622.91
2023-05-18T09:14:56.218Z,98624.53
2023-05-18T09:17:26.810Z,98632.38
2023-05-18T09:20:00.045Z,98620.06
2023-05-18T09:22:31.360Z,98619.28
2023-05-18T09:25:02.188Z,98615.41
2023-05-18T09:27:33.030Z,98616.44
2023-05-18T09:30:03.835Z,98622.00
2023-05-18T09:32:39.205Z,98623.66
2023-05-18T09:35:14.211Z,98620.19
2023-05-18T09:37:46.468Z,98620.56
2023-05-18T09:40:19.631Z,98619.78
2023-05-18T09:42:50.213Z,98622.91
2023-05-18T09:45:25.779Z,98623.41
2023-05-18T09:47:57.418Z,98616.03
2023-05-18T09:50:31.000Z,98613.53
2023-05-18T09:53:02.926Z,98614.53
2023-05-18T09:55:33.843Z,98609.31
2023-05-18T09:58:04.987Z,98605.03
2023-05-18T10:00:35.755Z,98602.06
2023-05-18T10:03:06.770Z,98603.81
2023-05-18T10:05:40.074Z,98602.69
2023-05-18T10:08:10.713Z,98595.78
2023-05-18T10:10:44.645Z,98589.38
2023-05-18T10:13:21.127Z,98590.59
2023-05-18T10:15:54.354Z,98590.84
2023-05-18T10:18:26.884Z,98582.56
2023-05-18T10:21:01.282Z,98576.31
2023-05-18T10:23:34.761Z,98590.53
2023-05-18T10:26:10.246Z,98595.09
2023-05-18T10:28:44.515Z,98589.38
2023-05-18T10:31:15.975Z,98587.63
2023-05-18T10:33:48.901Z,98579.84
2023-05-18T10:36:22.472Z,98582.22
2023-05-18T10:38:53.662Z,98584.63
2023-05-18T10:41:26.178Z,98582.72
2023-05-18T10:44:03.863Z,98582.03
2023-05-18T10:46:34.820Z,98578.16
2023-05-18T10:49:13.403Z,98578.84
2023-05-18T10:51:50.991Z,98573.69
2023-05-18T10:54:22.486Z,98577.59
2023-05-18T10:56:56.665Z,98571.03
2023-05-18T10:59:27.867Z,98571.47
2023-05-18T11:02:00.648Z,98570.94
2023-05-18T11:04:32.512Z,98566.06
2023-05-18T11:07:05.904Z,98573.34
2023-05-18T11:09:37.347Z,98578.13
2023-05-18T11:12:15.957Z,98574.38
2023-05-18T11:14:53.796Z,98572.31
2023-05-18T11:17:26.247Z,98569.00
2023-05-18T11:20:15.601Z,98570.16
2023-05-18T11:22:53.472Z,98560.97
2023-05-18T11:25:39.501Z,98549.00
2023-05-18T11:28:12.210Z,98558.16
2023-05-18T11:30:53.711Z,98571.47
2023-05-18T11:33:30.820Z,98563.78
2023-05-18T11:36:07.550Z,98562.06
2023-05-18T11:39:11.614Z,98566.81
2023-05-18T11:41:44.680Z,98554.22
2023-05-18T11:44:23.652Z,98549.75
2023-05-18T11:47:02.858Z,98551.91
2023-05-18T11:49:35.854Z,98555.69
2023-05-18T11:52:08.937Z,98553.25
2023-05-18T11:54:47.131Z,98549.75
2023-05-18T11:57:19.341Z,98553.56
2023-05-18T11:59:51.294Z,98555.81
2023-05-18T12:02:27.466Z,98541.19
2023-05-18T12:05:00.414Z,98540.56
2023-05-18T12:07:32.630Z,98536.25
2023-05-18T12:10:08.057Z,98540.16
2023-05-18T12:12:39.837Z,98537.31
2023-05-18T12:15:16.517Z,98524.53
2023-05-18T12:17:49.807Z,98547.41
2023-05-18T12:20:22.011Z,98530.25
2023-05-18T12:22:54.859Z,98514.44
2023-05-18T12:25:30.466Z,98523.69
2023-05-18T12:28:02.278Z,98517.50
2023-05-18T12:30:35.920Z,98523.94
2023-05-18T12:33:07.540Z,98526.84
2023-05-18T12:35:38.225Z,98527.09
2023-05-18T12:38:08.849Z,98511.94
2023-05-18T12:40:48.982Z,98526.13
2023-05-18T12:43:19.671Z,98524.22
2023-05-18T12:45:50.369Z,98524.25
2023-05-18T12:48:22.806Z,98529.31
2023-05-18T12:50:56.440Z,98513.94
2023-05-18T12:53:27.056Z,98520.31
2023-05-18T12:56:04.427Z,98513.91
2023-05-18T12:58:35.039Z,98514.66
2023-05-18T13:01:11.829Z,98501.53
2023-05-18T13:03:43.633Z,98507.25
2023-05-18T13:06:14.241Z,98512.09
2023-05-18T13:08:45.854Z,98511.94
2023-05-18T13:11:19.106Z,98522.47
2023-05-18T13:14:05.350Z,98511.03
2023-05-18T13:16:38.139Z,98495.66
2023-05-18T13:19:13.399Z,98498.56
2023-05-18T13:21:44.044Z,98501.25
2023-05-18T13:24:15.097Z,98510.03
2023-05-18T13:26:48.489Z,98496.66
2023-05-18T13:29:19.524Z,98504.53
2023-05-18T13:31:50.113Z,98504.34
2023-05-18T13:34:21.002Z,98502.03
2023-05-18T13:36:52.243Z,98503.59
2023-05-18T13:39:23.132Z,98498.59
2023-05-18T13:41:57.200Z,98495.59
2023-05-18T13:44:27.819Z,98489.69
2023-05-18T13:46:58.406Z,98491.75
2023-05-18T13:49:29.097Z,98484.97
2023-05-18T13:52:00.509Z,98475.56
2023-05-18T13:54:31.074Z,98476.47
2023-05-18T13:57:04.324Z,98470.53
2023-05-18T13:59:35.686Z,98470.84
2023-05-18T14:02:06.377Z,98471.94
2023-05-18T14:04:36.956Z,98473.56
2023-05-18T14:07:09.700Z,98468.34
2023-05-18T14:09:40.428Z,98470.69
2023-05-18T14:12:14.448Z,98473.09
2023-05-18T14:14:45.337Z,98467.91
2023-05-18T14:17:16.427Z,98462.16
2023-05-18T14:19:47.176Z,98457.38
2023-05-18T14:22:18.930Z,98461.50
2023-05-18T14:24:49.488Z,98449.25
2023-05-18T14:27:23.151Z,98455.66
2023-05-18T14:29:54.054Z,98456.47
2023-05-18T14:32:24.657Z,98453.44
2023-05-18T14:34:56.050Z,98455.25
2023-05-18T14:37:26.720Z,98460.41
2023-05-18T14:39:57.365Z,98456.66
2023-05-18T14:42:30.542Z,98454.75
2023-05-18T14:45:01.127Z,98447.69
2023-05-18T14:47:31.820Z,98447.53
2023-05-18T14:50:02.459Z,98449.28
2023-05-18T14:52:33.134Z,98455.22
2023-05-18T14:55:03.767Z,98450.41
2023-05-18T14:57:36.959Z,98460.25
2023-05-18T15:00:09.268Z,98457.06
2023-05-18T15:02:39.900Z,98460.63
2023-05-18T15:05:11.502Z,98471.25
2023-05-18T15:07:42.120Z,98478.75
2023-05-18T15:10:13.449Z,98479.31
2023-05-18T15:12:46.627Z,98476.09
2023-05-18T15:15:17.323Z,98470.03
2023-05-18T15:17:48.054Z,98471.03
2023-05-18T15:20:18.687Z,98469.41
2023-05-18T15:22:50.023Z,98464.47
2023-05-18T15:25:21.127Z,98466.75
2023-05-18T15:27:55.121Z,98461.66
2023-05-18T15:30:25.830Z,98466.66
2023-05-18T15:32:56.502Z,98460.88
2023-05-18T15:35:27.289Z,98460.03
2023-05-18T15:37:58.354Z,98462.91
2023-05-18T15:40:29.581Z,98468.84
2023-05-18T15:43:03.001Z,98471.59
2023-05-18T15:45:33.677Z,98467.75
2023-05-18T15:48:04.344Z,98469.63
2023-05-18T15:50:35.049Z,98469.25
2023-05-18T15:53:06.144Z,98463.97
2023-05-18T15:55:36.801Z,98460.34
2023-05-18T15:58:09.969Z,98472.53
2023-05-18T16:00:40.666Z,98464.63
2023-05-18T16:03:12.671Z,98467.53
2023-05-18T16:05:44.346Z,98460.81
2023-05-18T16:08:15.228Z,98456.63
2023-05-18T16:10:45.807Z,98452.44
2023-05-18T16:13:20.190Z,98457.91
2023-05-18T16:15:50.865Z,98450.16
2023-05-18T16:18:21.544Z,98460.16
2023-05-18T16:20:52.141Z,98445.19
2023-05-18T16:23:22.855Z,98458.84
2023-05-18T16:25:53.506Z,98451.03
2023-05-18T16:28:26.751Z,98459.31
2023-05-18T16:30:57.312Z,98452.31
2023-05-18T16:33:28.134Z,98451.56
2023-05-18T16:35:58.982Z,98450.34
2023-05-18T16:38:29.626Z,98449.78
2023-05-18T16:41:00.362Z,98458.31
2023-05-18T16:43:33.685Z,98456.84
2023-05-18T16:46:04.351Z,98453.72
2023-05-18T16:48:34.990Z,98460.13
2023-05-18T16:51:06.933Z,98463.69
2023-05-18T16:53:38.054Z,98465.28
2023-05-18T16:56:09.135Z,98470.72
2023-05-18T16:58:42.489Z,98464.34
2023-05-18T17:01:26.793Z,98478.03
2023-05-18T17:03:59.138Z,98467.03
2023-05-18T17:06:29.979Z,98471.97
2023-05-18T17:09:00.594Z,98467.03
2023-05-18T17:11:31.475Z,98464.56
2023-05-18T17:14:05.236Z,98471.75
2023-05-18T17:16:40.434Z,98467.69
2023-05-18T17:19:11.537Z,98469.28
2023-05-18T17:21:45.067Z,98473.28
2023-05-18T17:24:15.736Z,98473.47
2023-05-18T17:26:46.530Z,98476.97
2023-05-18T17:29:21.684Z,98475.50
2023-05-18T17:31:52.561Z,98472.13
2023-05-18T17:34:23.677Z,98473.16
2023-05-18T17:36:55.157Z,98468.44
2023-05-18T17:39:25.850Z,98476.63
2023-05-18T17:41:56.588Z,98468.53
2023-05-18T17:44:29.939Z,98472.03
2023-05-18T17:47:01.675Z,98477.66
2023-05-18T17:49:32.581Z,98476.53
2023-05-18T17:52:03.806Z,98478.78
2023-05-18T17:54:34.391Z,98478.88
2023-05-18T17:57:04.979Z,98479.63
2023-05-18T17:59:38.430Z,98475.34
2023-05-18T18:02:11.132Z,98482.06
2023-05-18T18:04:41.760Z,98483.53
2023-05-18T18:07:12.388Z,98477.63
2023-05-18T18:09:43.007Z,98475.91
2023-05-18T18:12:13.666Z,98483.25
2023-05-18T18:14:46.868Z,98484.34
2023-05-18T18:17:17.790Z,98487.22
2023-05-18T18:19:48.396Z,98484.38
2023-05-18T18:22:19.076Z,98479.66
2023-05-18T18:24:49.792Z,98484.09
2023-05-18T18:27:20.855Z,98484.78
2023-05-18T18:29:54.059Z,98484.88
2023-05-18T18:32:24.672Z,98485.81
2023-05-18T18:34:55.284Z,98485.84
2023-05-18T18:37:26.018Z,98488.84
2023-05-18T18:39:56.738Z,98496.72
2023-05-18T18:42:27.527Z,98497.66
2023-05-18T18:45:00.726Z,98497.09
2023-05-18T18:47:31.347Z,98493.06
2023-05-18T18:50:02.899Z,98495.66
2023-05-18T18:52:33.539Z,98496.97
2023-05-18T18:55:04.930Z,98504.09
2023-05-18T18:57:36.177Z,98506.66
2023-05-18T19:00:11.744Z,98508.88
2023-05-18T19:02:43.020Z,98505.88
2023-05-18T19:05:14.243Z,98519.69
2023-05-18T19:07:44.832Z,98512.63
2023-05-18T19:10:15.476Z,98517.78
2023-05-18T19:12:46.623Z,98521.00
2023-05-18T19:15:21.484Z,98518.69
2023-05-18T19:17:54.052Z,98523.09
2023-05-18T19:20:25.789Z,98525.88
2023-05-18T19:22:56.492Z,98520.56
2023-05-18T19:25:29.830Z,98529.09
2023-05-18T19:28:00.773Z,98531.06
2023-05-18T19:30:34.219Z,98536.19
2023-05-18T19:33:04.854Z,98542.88
2023-05-18T19:35:35.941Z,98542.50
2023-05-18T19:38:06.516Z,98544.06
2023-05-18T19:40:37.169Z,98544.06
2023-05-18T19:43:07.985Z,98545.88
2023-05-18T19:45:41.280Z,98539.94
2023-05-18T19:48:12.064Z,98552.78
2023-05-18T19:50:42.696Z,98551.81
2023-05-18T19:53:13.378Z,98556.53
2023-05-18T19:55:44.007Z,98560.28
2023-05-18T19:58:14.600Z,98564.03
2023-05-18T20:00:47.791Z,98564.81
2023-05-18T20:03:20.118Z,98563.47
2023-05-18T20:05:50.998Z,98559.50
2023-05-18T20:08:21.746Z,98565.03
2023-05-18T20:10:54.068Z,98570.16
2023-05-18T20:13:24.861Z,98563.47
2023-05-18T20:15:58.049Z,98566.28
2023-05-18T20:18:29.271Z,98574.56
2023-05-18T20:20:59.994Z,98570.00
2023-05-18T20:23:30.837Z,98568.28
2023-05-18T20:26:01.565Z,98566.09
2023-05-18T20:28:32.297Z,98568.47
2023-05-18T20:31:05.706Z,98567.09
2023-05-18T20:33:37.098Z,98566.31
2023-05-18T20:36:09.309Z,98576.16
2023-05-18T20:38:39.880Z,98575.56
2023-05-18T20:41:10.735Z,98572.41
2023-05-18T20:43:41.325Z,98575.94
2023-05-18T20:46:15.715Z,98576.72
2023-05-18T20:48:47.740Z,98572.41
2023-05-18T20:51:20.311Z,98575.75
2023-05-18T20:53:52.632Z,98569.03
2023-05-18T20:56:23.244Z,98566.09
2023-05-18T20:58:53.879Z,98561.19
2023-05-18T21:01:28.895Z,98562.72
2023-05-18T21:04:00.651Z,98561.56
2023-05-18T21:06:31.520Z,98559.00
2023-05-18T21:09:02.272Z,98559.00
2023-05-18T21:11:32.985Z,98566.69
2023-05-18T21:14:03.599Z,98562.34
2023-05-18T21:16:37.158Z,98558.78
2023-05-18T21:19:07.876Z,98563.50
2023-05-18T21:21:38.864Z,98552.91
2023-05-18T21:24:09.724Z,98558.22
2023-05-18T21:26:41.073Z,98548.75
2023-05-18T21:29:12.268Z,98553.09
2023-05-18T21:31:45.524Z,98555.03
2023-05-18T21:34:16.756Z,98556.03
2023-05-18T21:36:47.423Z,98558.22
2023-05-18T21:39:18.184Z,98563.13
2023-05-18T21:41:48.834Z,98562.75
2023-05-18T21:44:19.450Z,98560.38
2023-05-18T21:46:55.451Z,98554.28
2023-05-18T21:49:26.262Z,98556.25
2023-05-18T21:51:58.284Z,98554.88
2023-05-18T21:54:32.647Z,98550.75
2023-05-18T21:57:03.607Z,98549.53
2023-05-18T21:59:34.212Z,98551.91
2023-05-18T22:02:07.500Z,98550.53
2023-05-18T22:04:38.223Z,98558.41
2023-05-18T22:07:09.054Z,98557.22
2023-05-18T22:09:39.657Z,98556.66
2023-05-18T22:12:10.430Z,98558.41
2023-05-18T22:14:41.171Z,98556.63
2023-05-18T22:17:14.438Z,98555.84
2023-05-18T22:19:45.751Z,98559.59
2023-05-18T22:22:29.290Z,98561.56
2023-05-18T22:25:01.287Z,98550.91
2023-05-18T22:27:33.911Z,98549.31
2023-05-18T22:30:04.494Z,98546.97
2023-05-18T22:32:38.346Z,98551.31
2023-05-18T22:35:10.509Z,98549.72
2023-05-18T22:37:41.138Z,98541.81
2023-05-18T22:40:13.175Z,98540.09
2023-05-18T22:42:43.729Z,98542.19
2023-05-18T22:45:14.896Z,98544.31
2023-05-18T22:47:48.468Z,98542.19
2023-05-18T22:50:19.109Z,98538.25
2023-05-18T22:52:49.750Z,98542.78
2023-05-18T22:55:20.499Z,98540.22
2023-05-18T22:57:51.162Z,98542.38
2023-05-18T23:00:21.993Z,98543.31
2023-05-18T23:02:55.629Z,98543.88
2023-05-18T23:05:26.909Z,98549.22
2023-05-18T23:07:59.317Z,98543.94
2023-05-18T23:10:30.857Z,98538.97
2023-05-18T23:13:01.674Z,98538.22
2023-05-18T23:15:34.567Z,98538.19
2023-05-18T23:18:10.372Z,98538.56
2023-05-18T23:20:42.193Z,98542.50
2023-05-18T23:23:12.784Z,98545.06
2023-05-18T23:25:43.556Z,98543.69
2023-05-18T23:28:14.184Z,98539.72
2023-05-18T23:30:44.963Z,98544.06
2023-05-18T23:33:19.437Z,98539.38
2023-05-18T23:35:51.517Z,98544.28
2023-05-18T23:38:24.363Z,98537.00
2023-05-18T23:40:57.036Z,98539.75
2023-05-18T23:43:28.277Z,98538.53
2023-05-18T23:45:59.882Z,98542.25
2023-05-18T23:48:34.214Z,98541.66
2023-05-18T23:51:06.064Z,98540.09
2023-05-18T23:53:37.881Z,98533.00
2023-05-18T23:56:09.854Z,98528.84
2023-05-18T23:58:43.244Z,98530.19
